sensor_id;sensor_type;location;lat;lon;timestamp;pressure;altitude;pressure_sealevel;temperature;humidity
43745;BME280;29359;53.048;8.732;2023-06-26T00:01:19;101377.78;;;21.48;70.16
43745;BME280;29359;53.048;8.732;2023-06-26T00:03:22;101376.25;;;21.44;69.86
43745;BME280;29359;53.048;8.732;2023-06-26T00:05:24;101375.50;;;21.42;70.11
43745;BME280;29359;53.048;8.732;2023-06-26T00:07:26;101375.69;;;21.39;69.83
43745;BME280;29359;53.048;8.732;2023-06-26T00:09:27;101381.16;;;21.38;69.96
43745;BME280;29359;53.048;8.732;2023-06-26T00:11:30;101378.78;;;21.33;70.26
43745;BME280;29359;53.048;8.732;2023-06-26T00:13:34;101378.97;;;21.30;70.05
43745;BME280;29359;53.048;8.732;2023-06-26T00:15:36;101376.59;;;21.25;70.25
43745;BME280;29359;53.048;8.732;2023-06-26T00:17:37;101367.91;;;21.20;69.90
43745;BME280;29359;53.048;8.732;2023-06-26T00:19:39;101368.97;;;21.18;70.00
43745;BME280;29359;53.048;8.732;2023-06-26T00:21:41;101355.72;;;21.15;70.05
43745;BME280;29359;53.048;8.732;2023-06-26T00:23:47;101358.63;;;21.12;70.37
43745;BME280;29359;53.048;8.732;2023-06-26T00:25:49;101363.22;;;21.10;70.50
43745;BME280;29359;53.048;8.732;2023-06-26T00:27:50;101350.84;;;21.07;70.62
43745;BME280;29359;53.048;8.732;2023-06-26T00:29:52;101358.16;;;21.05;70.39
43745;BME280;29359;53.048;8.732;2023-06-26T00:31:54;101356.53;;;21.02;70.24
43745;BME280;29359;53.048;8.732;2023-06-26T00:33:56;101353.06;;;21.00;70.38
43745;BME280;29359;53.048;8.732;2023-06-26T00:35:57;101355.75;;;21.00;70.24
43745;BME280;29359;53.048;8.732;2023-06-26T00:37:59;101354.13;;;20.98;70.36
43745;BME280;29359;53.048;8.732;2023-06-26T00:40:00;101363.16;;;20.97;70.51
43745;BME280;29359;53.048;8.732;2023-06-26T00:42:02;101359.69;;;20.95;70.42
43745;BME280;29359;53.048;8.732;2023-06-26T00:44:05;101364.28;;;20.93;70.71
43745;BME280;29359;53.048;8.732;2023-06-26T00:46:09;101360.00;;;20.90;70.80
43745;BME280;29359;53.048;8.732;2023-06-26T00:48:11;101357.50;;;20.87;70.72
43745;BME280;29359;53.048;8.732;2023-06-26T00:50:13;101351.47;;;20.84;70.64
43745;BME280;29359;53.048;8.732;2023-06-26T00:52:17;101347.16;;;20.81;71.16
43745;BME280;29359;53.048;8.732;2023-06-26T00:54:19;101348.06;;;20.80;70.74
43745;BME280;29359;53.048;8.732;2023-06-26T00:56:21;101334.84;;;20.77;70.72
43745;BME280;29359;53.048;8.732;2023-06-26T00:58:24;101340.31;;;20.76;70.77
43745;BME280;29359;53.048;8.732;2023-06-26T01:00:26;101328.81;;;20.74;70.50
43745;BME280;29359;53.048;8.732;2023-06-26T01:02:28;101331.59;;;20.72;70.48
43745;BME280;29359;53.048;8.732;2023-06-26T01:04:34;101333.50;;;20.70;70.39
43745;BME280;29359;53.048;8.732;2023-06-26T01:06:36;101333.63;;;20.68;70.31
43745;BME280;29359;53.048;8.732;2023-06-26T01:08:39;101331.03;;;20.67;70.31
43745;BME280;29359;53.048;8.732;2023-06-26T01:10:41;101328.44;;;20.65;69.99
43745;BME280;29359;53.048;8.732;2023-06-26T01:12:42;101324.13;;;20.63;70.44
43745;BME280;29359;53.048;8.732;2023-06-26T01:14:44;101326.03;;;20.61;70.41
43745;BME280;29359;53.048;8.732;2023-06-26T01:16:46;101323.47;;;20.59;70.47
43745;BME280;29359;53.048;8.732;2023-06-26T01:18:51;101324.50;;;20.57;70.77
43745;BME280;29359;53.048;8.732;2023-06-26T01:20:53;101313.13;;;20.53;71.03
43745;BME280;29359;53.048;8.732;2023-06-26T01:23:05;101315.88;;;20.52;71.14
43745;BME280;29359;53.048;8.732;2023-06-26T01:25:15;101316.09;;;20.49;71.34
43745;BME280;29359;53.048;8.732;2023-06-26T01:27:21;101309.09;;;20.46;71.02
43745;BME280;29359;53.048;8.732;2023-06-26T01:29:24;101312.72;;;20.45;70.88
43745;BME280;29359;53.048;8.732;2023-06-26T01:31:27;101310.16;;;20.44;70.65
43745;BME280;29359;53.048;8.732;2023-06-26T01:33:31;101307.56;;;20.42;70.83
43745;BME280;29359;53.048;8.732;2023-06-26T01:35:32;101301.44;;;20.40;70.63
43745;BME280;29359;53.048;8.732;2023-06-26T01:37:34;101304.16;;;20.38;70.57
43745;BME280;29359;53.048;8.732;2023-06-26T01:39:35;101302.41;;;20.37;70.64
43745;BME280;29359;53.048;8.732;2023-06-26T01:41:37;101298.00;;;20.36;70.64
43745;BME280;29359;53.048;8.732;2023-06-26T01:46:22;101296.47;;;20.32;70.95
43745;BME280;29359;53.048;8.732;2023-06-26T01:48:30;101292.94;;;20.32;70.49
43745;BME280;29359;53.048;8.732;2023-06-26T01:50:33;101286.13;;;20.26;70.56
43745;BME280;29359;53.048;8.732;2023-06-26T01:52:47;101286.13;;;20.26;71.10
43745;BME280;29359;53.048;8.732;2023-06-26T01:55:05;101280.09;;;20.23;71.01
43745;BME280;29359;53.048;8.732;2023-06-26T01:57:10;101283.81;;;20.20;70.83
43745;BME280;29359;53.048;8.732;2023-06-26T01:59:12;101279.50;;;20.18;71.35
43745;BME280;29359;53.048;8.732;2023-06-26T02:01:15;101276.16;;;20.14;71.42
43745;BME280;29359;53.048;8.732;2023-06-26T02:03:17;101276.25;;;20.13;71.42
43745;BME280;29359;53.048;8.732;2023-06-26T02:05:19;101279.03;;;20.11;71.19
43745;BME280;29359;53.048;8.732;2023-06-26T02:07:21;101275.47;;;20.11;71.31
43745;BME280;29359;53.048;8.732;2023-06-26T02:09:23;101271.06;;;20.10;71.31
43745;BME280;29359;53.048;8.732;2023-06-26T02:11:24;101270.31;;;20.07;71.65
43745;BME280;29359;53.048;8.732;2023-06-26T02:13:26;101270.41;;;20.06;71.41
43745;BME280;29359;53.048;8.732;2023-06-26T02:15:27;101264.38;;;20.02;71.90
43745;BME280;29359;53.048;8.732;2023-06-26T02:17:29;101258.16;;;20.02;71.91
43745;BME280;29359;53.048;8.732;2023-06-26T02:19:33;101257.38;;;20.00;71.62
43745;BME280;29359;53.048;8.732;2023-06-26T02:21:34;101247.63;;;19.99;71.72
43745;BME280;29359;53.048;8.732;2023-06-26T02:23:37;101253.16;;;19.96;71.94
43745;BME280;29359;53.048;8.732;2023-06-26T02:25:39;101253.22;;;19.94;71.77
43745;BME280;29359;53.048;8.732;2023-06-26T02:27:40;101253.31;;;19.93;71.86
43745;BME280;29359;53.048;8.732;2023-06-26T02:29:44;101242.69;;;19.91;71.78
43745;BME280;29359;53.048;8.732;2023-06-26T02:31:45;101248.13;;;19.90;71.89
43745;BME280;29359;53.048;8.732;2023-06-26T02:33:47;101245.66;;;19.87;71.64
43745;BME280;29359;53.048;8.732;2023-06-26T02:35:48;101245.75;;;19.85;71.73
43745;BME280;29359;53.048;8.732;2023-06-26T02:37:51;101231.56;;;19.83;71.52
43745;BME280;29359;53.048;8.732;2023-06-26T02:39:53;101238.84;;;19.81;71.71
43745;BME280;29359;53.048;8.732;2023-06-26T02:41:54;101239.03;;;19.78;71.73
43745;BME280;29359;53.048;8.732;2023-06-26T02:43:56;101236.53;;;19.75;71.95
43745;BME280;29359;53.048;8.732;2023-06-26T02:45:57;101236.63;;;19.73;72.18
43745;BME280;29359;53.048;8.732;2023-06-26T02:47:59;101234.13;;;19.70;73.26
43745;BME280;29359;53.048;8.732;2023-06-26T02:50:00;101239.50;;;19.70;74.21
43745;BME280;29359;53.048;8.732;2023-06-26T02:52:02;101241.50;;;19.67;74.55
43745;BME280;29359;53.048;8.732;2023-06-26T02:54:04;101238.91;;;19.65;74.61
43745;BME280;29359;53.048;8.732;2023-06-26T02:56:05;101231.81;;;19.64;73.96
43745;BME280;29359;53.048;8.732;2023-06-26T02:58:07;101225.69;;;19.62;73.45
43745;BME280;29359;53.048;8.732;2023-06-26T03:00:09;101225.69;;;19.62;73.39
43745;BME280;29359;53.048;8.732;2023-06-26T03:02:12;101235.66;;;19.60;72.90
43745;BME280;29359;53.048;8.732;2023-06-26T03:04:14;101232.97;;;19.60;72.67
43745;BME280;29359;53.048;8.732;2023-06-26T03:06:17;101219.66;;;19.59;72.50
43745;BME280;29359;53.048;8.732;2023-06-26T03:08:18;101222.34;;;19.59;72.04
43745;BME280;29359;53.048;8.732;2023-06-26T03:10:20;101221.47;;;19.58;72.27
43745;BME280;29359;53.048;8.732;2023-06-26T03:12:22;101220.63;;;19.58;72.44
43745;BME280;29359;53.048;8.732;2023-06-26T03:14:23;101217.94;;;19.58;72.79
43745;BME280;29359;53.048;8.732;2023-06-26T03:16:25;101214.41;;;19.57;72.43
43745;BME280;29359;53.048;8.732;2023-06-26T03:18:27;101216.31;;;19.55;72.71
43745;BME280;29359;53.048;8.732;2023-06-26T03:20:28;101216.31;;;19.55;72.88
43745;BME280;29359;53.048;8.732;2023-06-26T03:22:30;101213.63;;;19.55;72.86
43745;BME280;29359;53.048;8.732;2023-06-26T03:24:31;101213.63;;;19.55;72.46
43745;BME280;29359;53.048;8.732;2023-06-26T03:26:35;101210.09;;;19.55;72.44
43745;BME280;29359;53.048;8.732;2023-06-26T03:28:36;101217.06;;;19.57;72.17
43745;BME280;29359;53.048;8.732;2023-06-26T03:30:38;101205.50;;;19.57;72.10
43745;BME280;29359;53.048;8.732;2023-06-26T03:32:40;101214.41;;;19.57;72.23
43745;BME280;29359;53.048;8.732;2023-06-26T03:34:41;101209.91;;;19.58;72.19
43745;BME280;29359;53.048;8.732;2023-06-26T03:36:43;101212.50;;;19.59;72.49
43745;BME280;29359;53.048;8.732;2023-06-26T03:38:44;101208.00;;;19.60;72.33
43745;BME280;29359;53.048;8.732;2023-06-26T03:40:46;101206.94;;;19.62;72.14
43745;BME280;29359;53.048;8.732;2023-06-26T03:42:48;101205.13;;;19.63;72.36
43745;BME280;29359;53.048;8.732;2023-06-26T03:44:49;101201.50;;;19.64;72.21
43745;BME280;29359;53.048;8.732;2023-06-26T03:46:51;101190.69;;;19.65;72.16
43745;BME280;29359;53.048;8.732;2023-06-26T03:48:52;101196.91;;;19.66;72.36
43745;BME280;29359;53.048;8.732;2023-06-26T03:50:55;101193.28;;;19.67;72.01
43745;BME280;29359;53.048;8.732;2023-06-26T03:52:57;101188.69;;;19.69;72.20
43745;BME280;29359;53.048;8.732;2023-06-26T03:55:00;101190.41;;;19.70;72.10
43745;BME280;29359;53.048;8.732;2023-06-26T03:57:02;101185.06;;;19.70;71.87
43745;BME280;29359;53.048;8.732;2023-06-26T03:59:03;101186.88;;;19.69;71.68
43745;BME280;29359;53.048;8.732;2023-06-26T04:01:05;101181.44;;;19.71;72.28
43745;BME280;29359;53.048;8.732;2023-06-26T04:03:06;101182.19;;;19.73;72.23
43745;BME280;29359;53.048;8.732;2023-06-26T04:05:08;101180.28;;;19.75;72.17
43745;BME280;29359;53.048;8.732;2023-06-26T04:07:10;101179.22;;;19.77;72.55
43745;BME280;29359;53.048;8.732;2023-06-26T04:09:11;101179.03;;;19.81;72.14
43745;BME280;29359;53.048;8.732;2023-06-26T04:11:13;101183.16;;;19.86;72.95
43745;BME280;29359;53.048;8.732;2023-06-26T04:13:14;101178.19;;;19.94;73.08
43745;BME280;29359;53.048;8.732;2023-06-26T04:15:16;101176.03;;;20.01;73.25
43745;BME280;29359;53.048;8.732;2023-06-26T04:17:18;101184.44;;;20.09;73.08
43745;BME280;29359;53.048;8.732;2023-06-26T04:19:19;101176.88;;;20.16;73.73
43745;BME280;29359;53.048;8.732;2023-06-26T04:21:21;101178.97;;;20.25;73.38
43745;BME280;29359;53.048;8.732;2023-06-26T04:23:25;101190.16;;;20.31;74.05
43745;BME280;29359;53.048;8.732;2023-06-26T04:25:27;101183.66;;;20.35;75.73
43745;BME280;29359;53.048;8.732;2023-06-26T04:27:30;101184.09;;;20.44;73.99
43745;BME280;29359;53.048;8.732;2023-06-26T04:29:32;101172.66;;;20.54;73.57
43745;BME280;29359;53.048;8.732;2023-06-26T04:31:33;101170.34;;;20.62;73.54
43745;BME280;29359;53.048;8.732;2023-06-26T04:33:36;101169.75;;;20.72;73.65
43745;BME280;29359;53.048;8.732;2023-06-26T04:35:39;101166.47;;;20.81;72.57
43745;BME280;29359;53.048;8.732;2023-06-26T04:37:41;101166.63;;;20.92;71.67
43745;BME280;29359;53.048;8.732;2023-06-26T04:39:42;101164.19;;;21.01;70.48
43745;BME280;29359;53.048;8.732;2023-06-26T04:41:44;101151.78;;;21.13;71.41
43745;BME280;29359;53.048;8.732;2023-06-26T04:43:46;101161.81;;;21.24;71.71
43745;BME280;29359;53.048;8.732;2023-06-26T04:45:48;101163.81;;;21.35;71.63
43745;BME280;29359;53.048;8.732;2023-06-26T04:47:49;101163.28;;;21.42;71.81
43745;BME280;29359;53.048;8.732;2023-06-26T04:49:51;101161.78;;;21.51;72.69
43745;BME280;29359;53.048;8.732;2023-06-26T04:51:54;101156.00;;;21.57;73.55
43745;BME280;29359;53.048;8.732;2023-06-26T04:53:55;101159.22;;;21.62;73.66
43745;BME280;29359;53.048;8.732;2023-06-26T04:55:57;101155.66;;;21.61;74.87
43745;BME280;29359;53.048;8.732;2023-06-26T04:57:58;101158.34;;;21.61;74.76
43745;BME280;29359;53.048;8.732;2023-06-26T05:00:00;101155.16;;;21.69;74.78
43745;BME280;29359;53.048;8.732;2023-06-26T05:02:02;101147.44;;;21.77;74.90
43745;BME280;29359;53.048;8.732;2023-06-26T05:04:04;101145.06;;;21.85;74.65
43745;BME280;29359;53.048;8.732;2023-06-26T05:06:06;101139.88;;;21.95;74.29
43745;BME280;29359;53.048;8.732;2023-06-26T05:08:14;101141.84;;;22.06;73.76
43745;BME280;29359;53.048;8.732;2023-06-26T05:10:16;101137.34;;;22.19;73.45
43745;BME280;29359;53.048;8.732;2023-06-26T05:12:18;101133.13;;;22.28;73.03
43745;BME280;29359;53.048;8.732;2023-06-26T05:14:20;101130.63;;;22.37;72.84
43745;BME280;29359;53.048;8.732;2023-06-26T05:16:25;101127.34;;;22.45;72.51
43745;BME280;29359;53.048;8.732;2023-06-26T05:18:27;101122.38;;;22.51;71.75
43745;BME280;29359;53.048;8.732;2023-06-26T05:20:29;101115.91;;;22.54;72.33
43745;BME280;29359;53.048;8.732;2023-06-26T05:22:32;101109.69;;;22.53;72.42
43745;BME280;29359;53.048;8.732;2023-06-26T05:24:38;101109.78;;;22.52;72.14
43745;BME280;29359;53.048;8.732;2023-06-26T05:26:40;101114.88;;;22.44;71.98
43745;BME280;29359;53.048;8.732;2023-06-26T05:28:45;101128.66;;;22.39;72.99
43745;BME280;29359;53.048;8.732;2023-06-26T05:30:50;101125.22;;;22.37;73.68
43745;BME280;29359;53.048;8.732;2023-06-26T05:32:52;101123.19;;;22.41;73.28
43745;BME280;29359;53.048;8.732;2023-06-26T05:34:55;101128.00;;;22.48;72.61
43745;BME280;29359;53.048;8.732;2023-06-26T05:37:00;101133.59;;;22.58;72.32
43745;BME280;29359;53.048;8.732;2023-06-26T05:39:02;101129.97;;;22.70;72.32
43745;BME280;29359;53.048;8.732;2023-06-26T05:41:07;101124.56;;;22.83;71.91
43745;BME280;29359;53.048;8.732;2023-06-26T05:43:09;101128.41;;;22.92;70.88
43745;BME280;29359;53.048;8.732;2023-06-26T05:45:11;101123.09;;;23.03;70.11
43745;BME280;29359;53.048;8.732;2023-06-26T05:47:12;101116.16;;;23.11;69.57
43745;BME280;29359;53.048;8.732;2023-06-26T05:49:14;101115.44;;;23.21;69.48
43745;BME280;29359;53.048;8.732;2023-06-26T05:51:16;101125.75;;;23.27;69.41
43745;BME280;29359;53.048;8.732;2023-06-26T05:53:18;101116.56;;;23.29;67.64
43745;BME280;29359;53.048;8.732;2023-06-26T05:55:20;101125.25;;;23.33;67.17
43745;BME280;29359;53.048;8.732;2023-06-26T05:57:22;101127.72;;;23.36;67.40
43745;BME280;29359;53.048;8.732;2023-06-26T05:59:24;101122.97;;;23.39;67.29
43745;BME280;29359;53.048;8.732;2023-06-26T06:01:27;101116.38;;;23.43;66.90
43745;BME280;29359;53.048;8.732;2023-06-26T06:03:29;101119.56;;;23.48;66.85
43745;BME280;29359;53.048;8.732;2023-06-26T06:05:31;101112.75;;;23.56;67.01
43745;BME280;29359;53.048;8.732;2023-06-26T06:07:33;101106.38;;;23.57;66.47
43745;BME280;29359;53.048;8.732;2023-06-26T06:09:35;101107.13;;;23.59;66.22
43745;BME280;29359;53.048;8.732;2023-06-26T06:11:36;101112.16;;;23.63;66.16
43745;BME280;29359;53.048;8.732;2023-06-26T06:13:38;101110.81;;;23.69;65.94
43745;BME280;29359;53.048;8.732;2023-06-26T06:15:40;101110.09;;;23.78;66.33
43745;BME280;29359;53.048;8.732;2023-06-26T06:17:41;101118.91;;;23.80;65.86
43745;BME280;29359;53.048;8.732;2023-06-26T06:19:43;101105.81;;;23.87;65.81
43745;BME280;29359;53.048;8.732;2023-06-26T06:21:44;101115.38;;;23.91;65.35
43745;BME280;29359;53.048;8.732;2023-06-26T06:23:46;101108.53;;;23.98;65.05
43745;BME280;29359;53.048;8.732;2023-06-26T06:25:47;101108.16;;;24.02;64.26
43745;BME280;29359;53.048;8.732;2023-06-26T06:27:49;101113.78;;;24.10;64.24
43745;BME280;29359;53.048;8.732;2023-06-26T06:29:50;101106.16;;;24.16;63.54
43745;BME280;29359;53.048;8.732;2023-06-26T06:31:52;101104.44;;;24.26;63.92
43745;BME280;29359;53.048;8.732;2023-06-26T06:33:54;101107.81;;;24.29;64.00
43745;BME280;29359;53.048;8.732;2023-06-26T06:35:56;101104.88;;;24.32;63.23
43745;BME280;29359;53.048;8.732;2023-06-26T06:37:57;101107.44;;;24.34;62.99
43745;BME280;29359;53.048;8.732;2023-06-26T06:39:59;101108.78;;;24.39;63.37
43745;BME280;29359;53.048;8.732;2023-06-26T06:42:01;101110.72;;;24.49;63.45
43745;BME280;29359;53.048;8.732;2023-06-26T06:44:02;101111.06;;;24.55;63.46
43745;BME280;29359;53.048;8.732;2023-06-26T06:46:04;101119.88;;;24.57;62.48
43745;BME280;29359;53.048;8.732;2023-06-26T06:48:06;101137.31;;;24.53;62.35
43745;BME280;29359;53.048;8.732;2023-06-26T06:50:08;101131.69;;;24.56;62.94
43745;BME280;29359;53.048;8.732;2023-06-26T06:52:10;101126.88;;;24.60;62.31
43745;BME280;29359;53.048;8.732;2023-06-26T06:54:11;101120.84;;;24.67;62.02
43745;BME280;29359;53.048;8.732;2023-06-26T06:56:13;101123.06;;;24.73;62.00
43745;BME280;29359;53.048;8.732;2023-06-26T06:58:15;101120.59;;;24.82;62.55
43745;BME280;29359;53.048;8.732;2023-06-26T07:00:18;101130.13;;;24.86;61.81
43745;BME280;29359;53.048;8.732;2023-06-26T07:02:20;101133.44;;;24.89;61.86
43745;BME280;29359;53.048;8.732;2023-06-26T07:04:21;101134.03;;;24.93;61.77
43745;BME280;29359;53.048;8.732;2023-06-26T07:06:23;101135.75;;;24.94;62.34
43745;BME280;29359;53.048;8.732;2023-06-26T07:08:24;101131.06;;;24.96;62.96
43745;BME280;29359;53.048;8.732;2023-06-26T07:10:26;101131.59;;;25.01;62.01
43745;BME280;29359;53.048;8.732;2023-06-26T07:12:27;101129.34;;;25.06;62.25
43745;BME280;29359;53.048;8.732;2023-06-26T07:16:31;101138.78;;;25.12;62.20
43745;BME280;29359;53.048;8.732;2023-06-26T07:18:33;101135.81;;;25.15;61.71
43745;BME280;29359;53.048;8.732;2023-06-26T07:20:34;101142.09;;;25.15;61.41
43745;BME280;29359;53.048;8.732;2023-06-26T07:22:36;101141.34;;;25.13;62.22
43745;BME280;29359;53.048;8.732;2023-06-26T07:24:38;101149.72;;;25.10;62.45
43745;BME280;29359;53.048;8.732;2023-06-26T07:26:40;101156.50;;;25.04;61.84
43745;BME280;29359;53.048;8.732;2023-06-26T07:28:47;101161.91;;;25.04;62.14
43745;BME280;29359;53.048;8.732;2023-06-26T07:30:50;101159.06;;;25.06;61.27
43745;BME280;29359;53.048;8.732;2023-06-26T07:32:51;101160.53;;;25.10;61.37
43745;BME280;29359;53.048;8.732;2023-06-26T07:34:53;101170.34;;;25.11;60.91
43745;BME280;29359;53.048;8.732;2023-06-26T07:36:55;101168.50;;;25.12;60.32
43745;BME280;29359;53.048;8.732;2023-06-26T07:38:56;101175.38;;;25.16;60.89
43745;BME280;29359;53.048;8.732;2023-06-26T07:40:58;101169.19;;;25.25;60.44
43745;BME280;29359;53.048;8.732;2023-06-26T07:42:59;101167.56;;;25.33;60.91
43745;BME280;29359;53.048;8.732;2023-06-26T07:45:01;101180.44;;;25.41;60.99
43745;BME280;29359;53.048;8.732;2023-06-26T07:47:03;101181.81;;;25.56;59.57
43745;BME280;29359;53.048;8.732;2023-06-26T07:49:05;101185.59;;;25.65;59.05
43745;BME280;29359;53.048;8.732;2023-06-26T07:51:06;101191.00;;;25.65;59.32
43745;BME280;29359;53.048;8.732;2023-06-26T07:53:08;101199.53;;;25.60;59.77
43745;BME280;29359;53.048;8.732;2023-06-26T07:55:09;101203.09;;;25.61;60.75
43745;BME280;29359;53.048;8.732;2023-06-26T07:57:11;101212.19;;;25.60;59.77
43745;BME280;29359;53.048;8.732;2023-06-26T07:59:14;101221.38;;;25.57;59.79
43745;BME280;29359;53.048;8.732;2023-06-26T08:01:15;101233.03;;;25.37;60.30
43745;BME280;29359;53.048;8.732;2023-06-26T08:03:17;101250.78;;;25.19;61.45
43745;BME280;29359;53.048;8.732;2023-06-26T08:05:34;101230.53;;;25.02;62.44
43745;BME280;29359;53.048;8.732;2023-06-26T08:07:36;101217.03;;;25.02;63.37
43745;BME280;29359;53.048;8.732;2023-06-26T08:09:38;101217.78;;;25.04;63.49
43745;BME280;29359;53.048;8.732;2023-06-26T08:13:41;101219.69;;;25.13;64.03
43745;BME280;29359;53.048;8.732;2023-06-26T08:15:42;101232.22;;;25.14;63.59
43745;BME280;29359;53.048;8.732;2023-06-26T08:17:45;101234.97;;;25.03;63.91
43745;BME280;29359;53.048;8.732;2023-06-26T08:19:47;101251.03;;;24.93;64.22
43745;BME280;29359;53.048;8.732;2023-06-26T08:21:48;101260.03;;;24.83;64.68
43745;BME280;29359;53.048;8.732;2023-06-26T08:23:50;101260.03;;;24.60;65.04
43745;BME280;29359;53.048;8.732;2023-06-26T08:25:51;101275.19;;;24.28;66.04
43745;BME280;29359;53.048;8.732;2023-06-26T08:27:53;101288.00;;;24.02;66.33
43745;BME280;29359;53.048;8.732;2023-06-26T08:29:55;101295.25;;;23.77;67.38
43745;BME280;29359;53.048;8.732;2023-06-26T08:31:56;101306.03;;;23.54;68.52
43745;BME280;29359;53.048;8.732;2023-06-26T08:33:58;101293.63;;;23.27;70.23
43745;BME280;29359;53.048;8.732;2023-06-26T08:35:59;101305.13;;;23.05;72.27
43745;BME280;29359;53.048;8.732;2023-06-26T08:38:01;101312.28;;;22.81;73.84
43745;BME280;29359;53.048;8.732;2023-06-26T08:40:03;101313.53;;;22.50;75.77
43745;BME280;29359;53.048;8.732;2023-06-26T08:42:05;101317.53;;;22.19;78.65
43745;BME280;29359;53.048;8.732;2023-06-26T08:44:07;101311.53;;;22.01;80.36
43745;BME280;29359;53.048;8.732;2023-06-26T08:46:09;101312.06;;;21.93;81.69
43745;BME280;29359;53.048;8.732;2023-06-26T08:48:13;101304.78;;;21.69;82.61
43745;BME280;29359;53.048;8.732;2023-06-26T08:50:17;101299.25;;;21.57;84.17
43745;BME280;29359;53.048;8.732;2023-06-26T08:52:28;101311.78;;;21.44;86.21
43745;BME280;29359;53.048;8.732;2023-06-26T08:54:34;101317.97;;;21.32;87.65
43745;BME280;29359;53.048;8.732;2023-06-26T08:56:41;101312.91;;;21.27;89.11
43745;BME280;29359;53.048;8.732;2023-06-26T08:58:44;101319.78;;;21.31;89.32
43745;BME280;29359;53.048;8.732;2023-06-26T09:00:47;101334.84;;;21.34;90.01
43745;BME280;29359;53.048;8.732;2023-06-26T09:02:48;101336.66;;;21.34;90.66
43745;BME280;29359;53.048;8.732;2023-06-26T09:04:50;101338.50;;;21.33;91.39
43745;BME280;29359;53.048;8.732;2023-06-26T09:06:52;101343.56;;;21.38;92.33
43745;BME280;29359;53.048;8.732;2023-06-26T09:08:53;101352.38;;;21.40;92.58
43745;BME280;29359;53.048;8.732;2023-06-26T09:10:55;101364.09;;;21.39;92.96
43745;BME280;29359;53.048;8.732;2023-06-26T09:12:57;101359.47;;;21.41;93.61
43745;BME280;29359;53.048;8.732;2023-06-26T09:15:01;101361.00;;;21.45;93.04
43745;BME280;29359;53.048;8.732;2023-06-26T09:17:04;101362.41;;;21.50;93.59
43745;BME280;29359;53.048;8.732;2023-06-26T09:19:12;101364.28;;;21.62;92.33
43745;BME280;29359;53.048;8.732;2023-06-26T09:21:14;101360.16;;;21.71;91.99
43745;BME280;29359;53.048;8.732;2023-06-26T09:23:16;101361.59;;;21.77;91.04
43745;BME280;29359;53.048;8.732;2023-06-26T09:25:18;101368.47;;;21.81;90.58
43745;BME280;29359;53.048;8.732;2023-06-26T09:27:20;101366.75;;;21.80;89.86
43745;BME280;29359;53.048;8.732;2023-06-26T09:29:22;101368.56;;;21.79;89.86
43745;BME280;29359;53.048;8.732;2023-06-26T09:31:24;101369.22;;;21.83;89.65
43745;BME280;29359;53.048;8.732;2023-06-26T09:33:42;101374.09;;;21.90;90.24
43745;BME280;29359;53.048;8.732;2023-06-26T09:35:49;101375.88;;;22.04;89.53
43745;BME280;29359;53.048;8.732;2023-06-26T09:37:50;101378.84;;;22.14;88.54
43745;BME280;29359;53.048;8.732;2023-06-26T09:39:52;101376.47;;;22.22;87.14
43745;BME280;29359;53.048;8.732;2023-06-26T09:41:54;101388.66;;;22.28;84.66
43745;BME280;29359;53.048;8.732;2023-06-26T09:44:01;101395.00;;;22.27;81.63
43745;BME280;29359;53.048;8.732;2023-06-26T09:46:03;101392.50;;;22.23;79.29
43745;BME280;29359;53.048;8.732;2023-06-26T09:48:06;101400.28;;;22.28;79.25
43745;BME280;29359;53.048;8.732;2023-06-26T09:50:21;101397.16;;;22.34;77.04
43745;BME280;29359;53.048;8.732;2023-06-26T09:52:26;101400.72;;;22.35;75.96
43745;BME280;29359;53.048;8.732;2023-06-26T09:54:28;101398.66;;;22.38;76.11
43745;BME280;29359;53.048;8.732;2023-06-26T09:56:32;101402.22;;;22.51;75.88
43745;BME280;29359;53.048;8.732;2023-06-26T09:58:36;101395.28;;;22.62;75.33
43745;BME280;29359;53.048;8.732;2023-06-26T10:00:38;101403.13;;;22.65;73.25
43745;BME280;29359;53.048;8.732;2023-06-26T10:02:39;101402.59;;;22.72;73.84
43745;BME280;29359;53.048;8.732;2023-06-26T10:04:41;101413.28;;;22.86;73.74
43745;BME280;29359;53.048;8.732;2023-06-26T10:06:46;101419.94;;;22.94;71.87
43745;BME280;29359;53.048;8.732;2023-06-26T10:08:50;101411.00;;;22.93;71.91
43745;BME280;29359;53.048;8.732;2023-06-26T10:10:53;101405.28;;;22.98;70.73
43745;BME280;29359;53.048;8.732;2023-06-26T10:13:18;101409.19;;;23.06;68.25
43745;BME280;29359;53.048;8.732;2023-06-26T10:15:23;101405.94;;;23.14;67.44
43745;BME280;29359;53.048;8.732;2023-06-26T10:17:28;101405.63;;;23.18;66.58
43745;BME280;29359;53.048;8.732;2023-06-26T10:19:33;101416.50;;;23.17;65.00
43745;BME280;29359;53.048;8.732;2023-06-26T10:21:37;101426.09;;;23.21;65.15
43745;BME280;29359;53.048;8.732;2023-06-26T10:23:40;101430.69;;;23.32;62.59
43745;BME280;29359;53.048;8.732;2023-06-26T10:25:45;101424.84;;;23.38;61.17
43745;BME280;29359;53.048;8.732;2023-06-26T10:27:55;101438.66;;;23.46;60.79
43745;BME280;29359;53.048;8.732;2023-06-26T10:30:03;101433.06;;;23.49;59.31
43745;BME280;29359;53.048;8.732;2023-06-26T10:32:10;101424.84;;;23.50;58.62
43745;BME280;29359;53.048;8.732;2023-06-26T10:34:13;101439.75;;;23.43;59.30
43745;BME280;29359;53.048;8.732;2023-06-26T10:36:20;101437.25;;;23.40;59.88
43745;BME280;29359;53.048;8.732;2023-06-26T10:38:51;101434.13;;;23.59;59.76
43745;BME280;29359;53.048;8.732;2023-06-26T10:40:53;101435.78;;;23.86;58.77
43745;BME280;29359;53.048;8.732;2023-06-26T10:43:08;101437.03;;;24.17;58.53
43745;BME280;29359;53.048;8.732;2023-06-26T10:47:42;101442.69;;;24.37;55.63
43745;BME280;29359;53.048;8.732;2023-06-26T10:49:46;101440.34;;;24.33;55.32
43745;BME280;29359;53.048;8.732;2023-06-26T10:52:02;101455.13;;;24.03;55.03